createdAt,value
2023-03-31T00:01:42.587Z,56.77
2023-03-31T00:04:14.224Z,57.15
2023-03-31T00:06:45.131Z,57.12
2023-03-31T00:09:19.139Z,56.96
2023-03-31T00:11:49.980Z,57.02
2023-03-31T00:14:22.122Z,57.04
2023-03-31T00:16:52.761Z,57.02
2023-03-31T00:19:23.505Z,57.00
2023-03-31T00:21:54.648Z,57.12
2023-03-31T00:24:25.191Z,57.39
2023-03-31T00:26:55.612Z,57.12
2023-03-31T00:29:26.231Z,57.11
2023-03-31T00:31:57.006Z,57.10
2023-03-31T00:34:28.150Z,57.02
2023-03-31T00:37:02.554Z,57.06
2023-03-31T00:39:35.367Z,57.07
2023-03-31T00:42:09.025Z,57.17
2023-03-31T00:45:03.152Z,57.08
2023-03-31T00:47:34.007Z,57.11
2023-03-31T00:50:05.220Z,57.20
2023-03-31T00:52:38.171Z,57.00
2023-03-31T00:55:16.808Z,57.11
2023-03-31T00:57:49.800Z,57.14
2023-03-31T01:00:22.178Z,57.07
2023-03-31T01:02:56.245Z,56.99
2023-03-31T01:05:30.394Z,57.11
2023-03-31T01:08:03.365Z,56.95
2023-03-31T01:10:41.840Z,57.17
2023-03-31T01:13:14.977Z,57.19
2023-03-31T01:15:46.332Z,57.17
2023-03-31T01:18:21.185Z,57.30
2023-03-31T01:21:26.095Z,56.91
2023-03-31T01:24:32.119Z,57.11
2023-03-31T01:27:22.867Z,57.17
2023-03-31T01:30:27.538Z,57.10
2023-03-31T01:33:21.503Z,57.03
2023-03-31T01:36:08.636Z,57.32
2023-03-31T01:39:02.987Z,57.13
2023-03-31T01:41:47.623Z,56.97
2023-03-31T01:44:30.348Z,57.07
2023-03-31T01:47:07.586Z,56.96
2023-03-31T01:49:45.817Z,57.22
2023-03-31T01:52:25.486Z,57.07
2023-03-31T01:55:03.041Z,57.07
2023-03-31T01:57:36.340Z,57.01
2023-03-31T02:00:12.128Z,56.91
2023-03-31T02:02:51.526Z,57.06
2023-03-31T02:05:26.107Z,57.02
2023-03-31T02:08:00.521Z,57.40
2023-03-31T02:10:34.182Z,57.09
2023-03-31T02:13:08.844Z,56.97
2023-03-31T02:15:44.092Z,56.98
2023-03-31T02:18:20.463Z,56.88
2023-03-31T02:20:53.576Z,56.90
2023-03-31T02:23:29.612Z,57.06
2023-03-31T02:26:05.012Z,57.08
2023-03-31T02:28:36.640Z,57.20
2023-03-31T02:31:22.599Z,57.00
2023-03-31T02:33:53.443Z,57.03
2023-03-31T02:36:24.287Z,57.08
2023-03-31T02:39:00.518Z,56.92
2023-03-31T02:41:31.308Z,56.81
2023-03-31T02:44:02.197Z,56.93
2023-03-31T02:46:34.284Z,56.85
2023-03-31T02:49:04.271Z,56.77
2023-03-31T02:52:04.520Z,56.75
2023-03-31T02:55:10.961Z,56.82
2023-03-31T02:58:12.542Z,56.83
2023-03-31T03:01:01.381Z,57.11
2023-03-31T03:03:44.184Z,57.04
2023-03-31T03:06:28.069Z,56.86
2023-03-31T03:09:13.237Z,56.90
2023-03-31T03:11:52.690Z,57.10
2023-03-31T03:14:32.840Z,57.01
2023-03-31T03:17:07.547Z,57.19
2023-03-31T03:19:38.045Z,56.93
2023-03-31T03:22:09.319Z,57.16
2023-03-31T03:24:40.007Z,56.93
2023-03-31T03:27:10.444Z,56.79
2023-03-31T03:29:41.937Z,56.69
2023-03-31T03:32:13.163Z,56.66
2023-03-31T03:34:43.896Z,56.83
2023-03-31T03:37:14.367Z,56.76
2023-03-31T03:39:44.823Z,56.67
2023-03-31T03:42:15.849Z,56.74
2023-03-31T03:44:46.391Z,56.91
2023-03-31T03:47:17.509Z,56.76
2023-03-31T03:49:49.213Z,56.87
2023-03-31T03:52:20.428Z,57.02
2023-03-31T03:54:50.952Z,57.05
2023-03-31T03:57:21.583Z,56.95
2023-03-31T03:59:52.152Z,56.95
2023-03-31T04:02:23.172Z,56.88
2023-03-31T04:04:54.560Z,56.88
2023-03-31T04:07:25.228Z,56.77
2023-03-31T04:09:55.850Z,56.90
2023-03-31T04:12:26.385Z,56.79
2023-03-31T04:14:56.914Z,56.92
2023-03-31T04:17:33.271Z,56.89
2023-03-31T04:20:07.891Z,56.66
2023-03-31T04:22:41.647Z,56.55
2023-03-31T04:25:16.449Z,56.65
2023-03-31T04:27:50.967Z,56.67
2023-03-31T04:30:23.802Z,56.63
2023-03-31T04:32:56.587Z,56.59
2023-03-31T04:35:49.867Z,56.69
2023-03-31T04:38:21.883Z,56.60
2023-03-31T04:40:54.135Z,56.68
2023-03-31T04:43:24.596Z,56.72
2023-03-31T04:45:55.318Z,56.70
2023-03-31T04:48:25.843Z,56.73
2023-03-31T04:50:56.345Z,56.62
2023-03-31T04:53:27.187Z,56.63
2023-03-31T04:55:58.126Z,56.58
2023-03-31T04:58:29.366Z,56.64
2023-03-31T05:01:00.239Z,56.58
2023-03-31T05:03:30.949Z,56.36
2023-03-31T05:06:02.020Z,56.43
2023-03-31T05:08:33.641Z,56.51
2023-03-31T05:11:06.325Z,56.53
2023-03-31T05:13:36.853Z,56.48
2023-03-31T05:16:14.559Z,56.65
2023-03-31T05:18:46.461Z,56.58
2023-03-31T05:21:19.625Z,56.51
2023-03-31T05:23:51.023Z,56.53
2023-03-31T05:26:23.115Z,56.50
2023-03-31T05:28:54.177Z,56.61
2023-03-31T05:31:24.918Z,56.66
2023-03-31T05:33:55.398Z,56.62
2023-03-31T05:36:27.309Z,56.71
2023-03-31T05:38:57.942Z,56.89
2023-03-31T05:41:28.979Z,56.89
2023-03-31T05:44:00.007Z,56.94
2023-03-31T05:46:30.869Z,56.88
2023-03-31T05:49:02.438Z,56.90
2023-03-31T05:51:33.051Z,57.09
2023-03-31T05:54:03.521Z,56.99
2023-03-31T05:56:34.010Z,57.09
2023-03-31T05:59:05.280Z,57.10
2023-03-31T06:01:35.990Z,57.10
2023-03-31T06:04:06.840Z,57.19
2023-03-31T06:06:38.256Z,57.39
2023-03-31T06:09:08.993Z,57.21
2023-03-31T06:11:39.929Z,57.36
2023-03-31T06:14:10.583Z,57.37
2023-03-31T06:16:41.524Z,57.42
2023-03-31T06:19:12.006Z,57.53
2023-03-31T06:21:42.953Z,57.46
2023-03-31T06:24:13.504Z,57.50
2023-03-31T06:26:44.456Z,57.73
2023-03-31T06:29:14.942Z,57.70
2023-03-31T06:31:46.100Z,57.76
2023-03-31T06:34:18.413Z,57.83
2023-03-31T06:36:49.944Z,57.75
2023-03-31T06:39:20.373Z,58.06
2023-03-31T06:41:50.877Z,57.97
2023-03-31T06:44:26.136Z,57.96
2023-03-31T06:46:56.621Z,57.98
2023-03-31T06:49:27.063Z,58.11
2023-03-31T06:51:57.491Z,58.23
2023-03-31T06:54:27.953Z,58.19
2023-03-31T06:56:58.626Z,58.44
2023-03-31T06:59:29.153Z,58.74
2023-03-31T07:01:59.688Z,58.71
2023-03-31T07:04:30.575Z,58.51
2023-03-31T07:07:02.124Z,58.92
2023-03-31T07:09:32.657Z,58.90
2023-03-31T07:12:05.379Z,58.68
2023-03-31T07:14:35.938Z,58.77
2023-03-31T07:17:06.887Z,58.75
2023-03-31T07:19:37.940Z,58.66
2023-03-31T07:22:08.397Z,58.48
2023-03-31T07:24:39.441Z,58.48
2023-03-31T07:27:09.950Z,58.56
2023-03-31T07:29:40.580Z,58.79
2023-03-31T07:32:11.514Z,58.72
2023-03-31T07:34:42.152Z,58.78
2023-03-31T07:37:12.730Z,58.65
2023-03-31T07:39:43.277Z,58.56
2023-03-31T07:42:13.843Z,58.56
2023-03-31T07:44:44.493Z,58.58
2023-03-31T07:47:15.030Z,58.62
2023-03-31T07:49:45.847Z,58.86
2023-03-31T07:52:16.715Z,58.68
2023-03-31T07:54:47.218Z,58.58
2023-03-31T07:57:19.588Z,58.55
2023-03-31T07:59:50.239Z,58.44
2023-03-31T08:02:21.315Z,58.61
2023-03-31T08:04:51.992Z,58.65
2023-03-31T08:07:22.433Z,58.49
2023-03-31T08:09:53.256Z,58.45
2023-03-31T08:12:23.721Z,58.62
2023-03-31T08:14:54.319Z,58.72
2023-03-31T08:17:24.947Z,58.95
2023-03-31T08:19:55.588Z,58.74
2023-03-31T08:22:26.508Z,58.72
2023-03-31T08:24:56.972Z,58.90
2023-03-31T08:27:27.583Z,58.98
2023-03-31T08:29:58.121Z,58.99
2023-03-31T08:32:29.860Z,58.80
2023-03-31T08:35:00.919Z,58.25
2023-03-31T08:37:31.677Z,58.30
2023-03-31T08:40:04.738Z,58.45
2023-03-31T08:42:42.445Z,58.08
2023-03-31T08:45:21.977Z,57.97
2023-03-31T08:47:57.613Z,58.46
2023-03-31T08:50:31.790Z,58.33
2023-03-31T08:53:07.514Z,57.90
2023-03-31T08:55:44.764Z,58.03
2023-03-31T08:58:28.924Z,57.55
2023-03-31T09:01:07.778Z,57.66
2023-03-31T09:03:48.461Z,57.43
2023-03-31T09:06:23.634Z,57.68
2023-03-31T09:08:56.338Z,57.95
2023-03-31T09:11:34.378Z,57.80
2023-03-31T09:14:19.614Z,57.95
2023-03-31T09:16:56.849Z,57.84
2023-03-31T09:19:38.205Z,57.50
2023-03-31T09:22:16.525Z,57.39
2023-03-31T09:24:51.231Z,57.40
2023-03-31T09:27:22.531Z,57.38
2023-03-31T09:29:57.299Z,57.08
2023-03-31T09:32:31.227Z,56.78
2023-03-31T09:35:13.797Z,56.80
2023-03-31T09:37:44.368Z,56.80
2023-03-31T09:40:20.440Z,56.46
2023-03-31T09:42:55.356Z,56.83
2023-03-31T09:45:26.198Z,56.72
2023-03-31T09:47:59.604Z,56.63
2023-03-31T09:50:31.929Z,56.80
2023-03-31T09:53:05.420Z,56.61
2023-03-31T09:55:45.588Z,56.56
2023-03-31T09:58:18.460Z,56.44
2023-03-31T10:01:00.790Z,56.32
2023-03-31T10:03:36.880Z,56.15
2023-03-31T10:06:12.748Z,56.40
2023-03-31T10:08:48.993Z,56.37
2023-03-31T10:11:19.775Z,56.27
2023-03-31T10:13:58.899Z,56.17
2023-03-31T10:16:44.474Z,56.46
2023-03-31T10:19:20.594Z,56.58
2023-03-31T10:21:56.782Z,56.15
2023-03-31T10:24:28.880Z,56.28
2023-03-31T10:27:00.557Z,56.11
2023-03-31T10:29:35.079Z,56.08
2023-03-31T10:32:15.581Z,55.94
2023-03-31T10:34:46.410Z,55.73
2023-03-31T10:37:20.467Z,55.72
2023-03-31T10:39:57.909Z,55.71
2023-03-31T10:42:29.439Z,55.41
2023-03-31T10:45:26.303Z,55.45
2023-03-31T10:48:04.920Z,55.39
2023-03-31T10:50:37.616Z,55.51
2023-03-31T10:53:13.141Z,55.27
2023-03-31T10:55:54.388Z,55.20
2023-03-31T10:58:36.946Z,55.52
2023-03-31T11:01:19.727Z,55.38
2023-03-31T11:04:20.548Z,55.61
2023-03-31T11:07:03.057Z,55.76
2023-03-31T11:09:53.934Z,55.72
2023-03-31T11:12:26.199Z,55.68
2023-03-31T11:15:09.244Z,55.18
2023-03-31T11:17:54.784Z,55.00
2023-03-31T11:20:34.394Z,54.84
2023-03-31T11:23:16.498Z,54.75
2023-03-31T11:25:57.200Z,54.93
2023-03-31T11:28:40.190Z,54.86
2023-03-31T11:31:29.433Z,54.92
2023-03-31T11:34:18.180Z,54.88
2023-03-31T11:37:11.808Z,54.63
2023-03-31T11:39:52.769Z,54.76
2023-03-31T11:42:27.365Z,54.74
2023-03-31T11:45:04.019Z,54.67
2023-03-31T11:47:38.712Z,54.88
2023-03-31T11:50:15.933Z,55.64
2023-03-31T11:52:55.580Z,55.08
2023-03-31T11:55:29.620Z,55.28
2023-03-31T11:58:05.654Z,55.03
2023-03-31T12:00:41.904Z,55.34
2023-03-31T12:03:18.610Z,54.61
2023-03-31T12:05:54.192Z,54.53
2023-03-31T12:08:32.837Z,54.31
2023-03-31T12:11:08.782Z,53.82
2023-03-31T12:13:46.916Z,53.72
2023-03-31T12:16:18.392Z,53.68
2023-03-31T12:18:58.337Z,53.64
2023-03-31T12:21:30.847Z,53.63
2023-03-31T12:24:01.428Z,53.51
2023-03-31T12:26:41.203Z,53.36
2023-03-31T12:29:26.807Z,53.36
2023-03-31T12:32:00.652Z,53.21
2023-03-31T12:34:32.974Z,52.98
2023-03-31T12:37:36.830Z,52.66
2023-03-31T12:40:19.060Z,52.62
2023-03-31T12:43:09.357Z,52.76
2023-03-31T12:45:47.956Z,53.15
2023-03-31T12:48:49.548Z,53.68
2023-03-31T12:51:36.009Z,54.25
2023-03-31T12:54:23.856Z,54.56
2023-03-31T12:57:14.046Z,54.71
2023-03-31T12:59:45.858Z,54.91
2023-03-31T13:02:25.637Z,54.91
2023-03-31T13:04:56.584Z,55.13
2023-03-31T13:07:46.782Z,55.33
2023-03-31T13:10:32.313Z,55.38
2023-03-31T13:13:13.448Z,55.78
2023-03-31T13:15:54.266Z,56.19
2023-03-31T13:18:26.090Z,56.62
2023-03-31T13:21:05.439Z,56.92
2023-03-31T13:23:38.105Z,57.48
2023-03-31T13:26:31.908Z,58.02
2023-03-31T13:29:22.279Z,58.32
2023-03-31T13:32:22.701Z,58.57
2023-03-31T13:35:03.875Z,58.78
2023-03-31T13:37:49.781Z,59.08
2023-03-31T13:40:44.133Z,59.24
2023-03-31T13:43:44.807Z,59.27
2023-03-31T13:46:45.696Z,59.45
2023-03-31T13:49:38.739Z,59.79
2023-03-31T13:52:13.105Z,59.59
2023-03-31T13:55:08.434Z,59.69
2023-03-31T13:58:25.427Z,59.65
2023-03-31T14:01:26.775Z,59.63
2023-03-31T14:04:14.118Z,59.51
2023-03-31T14:06:49.934Z,59.73
2023-03-31T14:09:26.639Z,59.89
2023-03-31T14:11:59.438Z,60.09
2023-03-31T14:14:30.560Z,60.32
2023-03-31T14:17:04.329Z,60.36
2023-03-31T14:20:09.053Z,60.45
2023-03-31T14:22:50.040Z,60.72
2023-03-31T14:25:45.486Z,61.32
2023-03-31T14:28:38.243Z,61.39
2023-03-31T14:31:21.442Z,61.23
2023-03-31T14:34:12.238Z,61.48
2023-03-31T14:36:49.430Z,61.54
2023-03-31T14:39:24.661Z,61.45
2023-03-31T14:41:58.052Z,61.45
2023-03-31T14:44:30.007Z,61.53
2023-03-31T14:46:59.173Z,61.67
2023-03-31T14:49:35.740Z,61.74
2023-03-31T14:52:18.540Z,61.77
2023-03-31T14:54:50.002Z,61.81
2023-03-31T14:57:27.897Z,61.85
2023-03-31T14:59:59.292Z,61.83
2023-03-31T15:02:35.307Z,61.63
2023-03-31T15:05:10.072Z,61.31
2023-03-31T15:07:43.968Z,61.27
2023-03-31T15:10:21.336Z,61.22
2023-03-31T15:12:52.813Z,61.22
2023-03-31T15:15:24.248Z,60.95
2023-03-31T15:17:55.557Z,60.69
2023-03-31T15:20:34.962Z,60.79
2023-03-31T15:23:24.812Z,60.70
2023-03-31T15:25:59.378Z,61.15
2023-03-31T15:28:35.393Z,61.60
2023-03-31T15:31:10.604Z,61.37
2023-03-31T15:33:42.573Z,60.82
2023-03-31T15:36:15.001Z,60.37
2023-03-31T15:38:46.033Z,60.21
2023-03-31T15:41:18.361Z,59.99
2023-03-31T15:43:51.664Z,60.04
2023-03-31T15:46:47.183Z,59.98
2023-03-31T15:49:24.554Z,59.71
2023-03-31T15:51:56.217Z,59.68
2023-03-31T15:54:41.008Z,60.15
2023-03-31T15:57:16.276Z,59.82
2023-03-31T15:59:55.888Z,59.81
2023-03-31T16:02:36.385Z,59.69
2023-03-31T16:08:01.262Z,59.29
2023-03-31T16:10:35.172Z,59.12
2023-03-31T16:13:08.690Z,59.07
2023-03-31T16:15:42.486Z,59.23
2023-03-31T16:18:16.392Z,59.26
2023-03-31T16:20:54.443Z,59.55
2023-03-31T16:23:27.614Z,59.39
2023-03-31T16:25:58.583Z,59.47
2023-03-31T16:28:32.042Z,59.59
2023-03-31T16:31:03.632Z,60.07
2023-03-31T16:33:53.498Z,59.90
2023-03-31T16:36:24.369Z,59.98
2023-03-31T16:38:56.119Z,59.74
2023-03-31T16:41:28.849Z,59.70
2023-03-31T16:43:59.416Z,59.75
2023-03-31T16:46:30.459Z,60.03
2023-03-31T16:49:01.515Z,60.14
2023-03-31T16:51:32.299Z,60.19
2023-03-31T16:54:02.940Z,60.56
2023-03-31T16:56:33.473Z,60.41
2023-03-31T16:59:04.100Z,60.40
2023-03-31T17:01:34.885Z,60.78
2023-03-31T17:04:05.645Z,61.04
2023-03-31T17:06:36.125Z,60.93
2023-03-31T17:09:07.082Z,60.97
2023-03-31T17:11:38.312Z,60.81
2023-03-31T17:14:10.437Z,60.70
2023-03-31T17:16:48.061Z,60.78
2023-03-31T17:19:18.311Z,60.94
2023-03-31T17:21:49.528Z,60.56
2023-03-31T17:24:20.000Z,60.74
2023-03-31T17:26:50.429Z,60.57
2023-03-31T17:29:21.424Z,60.76
2023-03-31T17:31:51.934Z,60.56
2023-03-31T17:34:22.521Z,60.68
2023-03-31T17:36:54.851Z,60.50
2023-03-31T17:39:25.476Z,60.77
2023-03-31T17:41:57.003Z,60.33
2023-03-31T17:44:27.549Z,59.79
2023-03-31T17:46:58.120Z,60.07
2023-03-31T17:49:28.817Z,60.20
2023-03-31T17:51:59.450Z,60.16
2023-03-31T17:54:29.933Z,60.04
2023-03-31T17:57:01.589Z,60.06
2023-03-31T17:59:32.267Z,59.44
2023-03-31T18:02:03.066Z,59.35
2023-03-31T18:04:33.803Z,59.47
2023-03-31T18:07:04.330Z,59.10
2023-03-31T18:09:35.318Z,59.12
2023-03-31T18:12:06.385Z,59.09
2023-03-31T18:14:36.774Z,59.84
2023-03-31T18:17:07.289Z,59.31
2023-03-31T18:19:37.939Z,59.02
2023-03-31T18:22:08.432Z,58.82
2023-03-31T18:24:40.875Z,58.76
2023-03-31T18:27:11.982Z,58.70
2023-03-31T18:29:42.825Z,58.62
2023-03-31T18:32:13.606Z,58.53
2023-03-31T18:34:44.720Z,58.79
2023-03-31T18:37:15.258Z,58.90
2023-03-31T18:39:45.853Z,58.72
2023-03-31T18:42:19.260Z,58.52
2023-03-31T18:44:50.209Z,58.70
2023-03-31T18:47:21.557Z,58.38
2023-03-31T18:49:55.696Z,58.55
2023-03-31T18:52:26.229Z,58.47
2023-03-31T18:54:57.575Z,58.49
2023-03-31T18:57:28.166Z,58.62
2023-03-31T18:59:59.522Z,58.61
2023-03-31T19:02:30.158Z,58.76
2023-03-31T19:05:00.686Z,58.66
2023-03-31T19:07:32.354Z,58.48
2023-03-31T19:10:03.083Z,58.54
2023-03-31T19:12:33.918Z,58.56
2023-03-31T19:15:04.941Z,58.74
2023-03-31T19:17:35.936Z,58.60
2023-03-31T19:20:07.990Z,58.55
2023-03-31T19:22:38.456Z,58.68
2023-03-31T19:25:10.565Z,58.46
2023-03-31T19:27:41.349Z,58.50
2023-03-31T19:30:18.695Z,58.69
2023-03-31T19:32:50.005Z,58.30
2023-03-31T19:35:21.468Z,58.39
2023-03-31T19:37:53.347Z,58.40
2023-03-31T19:40:24.266Z,58.31
2023-03-31T19:42:54.793Z,58.47
2023-03-31T19:45:25.371Z,58.21
2023-03-31T19:47:56.012Z,58.54
2023-03-31T19:50:26.617Z,58.34
2023-03-31T19:52:58.267Z,58.70
2023-03-31T19:55:29.113Z,58.77
2023-03-31T19:58:00.350Z,58.95
2023-03-31T20:00:31.076Z,58.82
2023-03-31T20:03:01.765Z,58.63
2023-03-31T20:05:33.939Z,58.52
2023-03-31T20:08:02.884Z,58.73
2023-03-31T20:10:33.436Z,58.60
2023-03-31T20:13:04.348Z,58.66
2023-03-31T20:15:35.104Z,58.42
2023-03-31T20:18:05.838Z,58.45
2023-03-31T20:20:36.401Z,58.39
2023-03-31T20:23:07.079Z,58.45
2023-03-31T20:25:39.365Z,58.53
2023-03-31T20:28:10.086Z,58.54
2023-03-31T20:30:41.741Z,58.51
2023-03-31T20:33:12.509Z,58.66
2023-03-31T20:35:43.091Z,58.75
2023-03-31T20:38:13.735Z,58.70
2023-03-31T20:40:49.183Z,58.92
2023-03-31T20:43:19.975Z,59.51
2023-03-31T20:46:02.860Z,59.78
2023-03-31T20:48:36.656Z,60.12
2023-03-31T20:51:08.264Z,60.21
2023-03-31T20:53:42.704Z,60.25
2023-03-31T20:56:19.745Z,60.55
2023-03-31T20:58:50.852Z,60.36
2023-03-31T21:01:22.279Z,60.34
2023-03-31T21:03:52.922Z,60.49
2023-03-31T21:06:23.983Z,60.33
2023-03-31T21:08:55.808Z,60.32
2023-03-31T21:11:27.482Z,60.77
2023-03-31T21:13:58.067Z,60.50
2023-03-31T21:16:29.012Z,60.52
2023-03-31T21:18:59.952Z,60.25
2023-03-31T21:21:30.697Z,60.18
2023-03-31T21:24:01.432Z,60.35
2023-03-31T21:26:32.010Z,60.43
2023-03-31T21:29:02.557Z,60.39
2023-03-31T21:31:33.253Z,60.83
2023-03-31T21:34:04.705Z,60.58
2023-03-31T21:36:35.924Z,60.64
2023-03-31T21:39:06.676Z,60.77
2023-03-31T21:41:39.856Z,60.57
2023-03-31T21:44:10.827Z,60.48
2023-03-31T21:46:45.195Z,60.23
2023-03-31T21:49:17.327Z,60.47
2023-03-31T21:51:49.093Z,60.42
2023-03-31T21:54:19.625Z,60.23
2023-03-31T21:56:50.134Z,60.10
2023-03-31T21:59:20.785Z,60.12
2023-03-31T22:01:51.293Z,60.09
2023-03-31T22:04:21.943Z,59.87
2023-03-31T22:06:52.448Z,60.53
2023-03-31T22:09:22.982Z,60.38
2023-03-31T22:11:53.448Z,60.44
2023-03-31T22:14:23.956Z,60.50
2023-03-31T22:16:54.415Z,60.61
2023-03-31T22:19:25.083Z,60.47
2023-03-31T22:21:55.609Z,60.40
2023-03-31T22:24:26.412Z,60.20
2023-03-31T22:26:57.009Z,60.37
2023-03-31T22:29:30.383Z,60.28
2023-03-31T22:32:01.105Z,60.40
2023-03-31T22:34:32.179Z,60.25
2023-03-31T22:37:02.728Z,60.39
2023-03-31T22:39:33.205Z,60.12
2023-03-31T22:42:03.774Z,60.27
2023-03-31T22:44:35.533Z,60.22
2023-03-31T22:47:06.506Z,60.38
2023-03-31T22:49:37.293Z,60.36
2023-03-31T22:52:07.918Z,60.25
2023-03-31T22:54:40.201Z,60.13
2023-03-31T22:57:10.726Z,60.21
2023-03-31T22:59:41.780Z,60.03
2023-03-31T23:02:12.512Z,60.22
2023-03-31T23:04:42.970Z,60.17
2023-03-31T23:07:13.445Z,60.34
2023-03-31T23:09:43.939Z,60.31
2023-03-31T23:12:14.373Z,60.47
2023-03-31T23:14:44.827Z,60.44
2023-03-31T23:17:15.386Z,60.44
2023-03-31T23:19:47.561Z,60.34
2023-03-31T23:22:18.785Z,60.84
2023-03-31T23:24:51.789Z,60.66
2023-03-31T23:27:22.420Z,60.79
2023-03-31T23:29:52.943Z,60.88
2023-03-31T23:32:23.583Z,60.87
2023-03-31T23:34:54.363Z,61.17
2023-03-31T23:37:24.980Z,61.32
2023-03-31T23:39:55.461Z,61.50
2023-03-31T23:42:26.292Z,61.43
2023-03-31T23:44:56.839Z,61.54
2023-03-31T23:47:27.722Z,61.81
2023-03-31T23:49:58.614Z,61.65
2023-03-31T23:52:29.057Z,61.53
2023-03-31T23:54:59.601Z,61.60
2023-03-31T23:57:30.242Z,61.70
